sensor_id;sensor_type;location;lat;lon;timestamp;pressure;altitude;pressure_sealevel;temperature;humidity
32324;BME280;25666;44.350;9.222;2023-03-25T00:02:20;101573.16;;;14.80;100.00
32324;BME280;25666;44.350;9.222;2023-03-25T00:04:51;101581.81;;;14.75;100.00
32324;BME280;25666;44.350;9.222;2023-03-25T00:07:18;101569.31;;;14.73;100.00
32324;BME280;25666;44.350;9.222;2023-03-25T00:09:44;101567.72;;;14.72;100.00
32324;BME280;25666;44.350;9.222;2023-03-25T00:12:10;101563.44;;;14.62;100.00
32324;BME280;25666;44.350;9.222;2023-03-25T00:14:36;101570.41;;;14.68;100.00
32324;BME280;25666;44.350;9.222;2023-03-25T00:17:01;101564.59;;;14.61;100.00
32324;BME280;25666;44.350;9.222;2023-03-25T00:19:26;101561.47;;;14.63;100.00
32324;BME280;25666;44.350;9.222;2023-03-25T00:21:52;101558.66;;;14.63;100.00
32324;BME280;25666;44.350;9.222;2023-03-25T00:24:18;101552.47;;;14.57;100.00
32324;BME280;25666;44.350;9.222;2023-03-25T00:26:46;101545.91;;;14.65;100.00
32324;BME280;25666;44.350;9.222;2023-03-25T00:29:14;101545.50;;;14.51;100.00
32324;BME280;25666;44.350;9.222;2023-03-25T00:31:40;101545.38;;;14.60;100.00
32324;BME280;25666;44.350;9.222;2023-03-25T00:34:06;101539.94;;;14.67;100.00
32324;BME280;25666;44.350;9.222;2023-03-25T00:36:33;101545.75;;;14.74;100.00
32324;BME280;25666;44.350;9.222;2023-03-25T00:39:03;101544.81;;;14.70;100.00
32324;BME280;25666;44.350;9.222;2023-03-25T00:41:29;101539.34;;;14.45;100.00
32324;BME280;25666;44.350;9.222;2023-03-25T00:43:58;101532.09;;;14.44;100.00
32324;BME280;25666;44.350;9.222;2023-03-25T00:46:27;101521.91;;;14.36;100.00
32324;BME280;25666;44.350;9.222;2023-03-25T00:48:53;101517.94;;;14.37;100.00
32324;BME280;25666;44.350;9.222;2023-03-25T00:51:21;101508.53;;;14.45;100.00
32324;BME280;25666;44.350;9.222;2023-03-25T00:53:51;101507.28;;;14.43;100.00
32324;BME280;25666;44.350;9.222;2023-03-25T00:56:18;101496.50;;;14.45;100.00
32324;BME280;25666;44.350;9.222;2023-03-25T00:58:43;101504.09;;;14.44;100.00
32324;BME280;25666;44.350;9.222;2023-03-25T01:01:11;101494.22;;;14.35;100.00
32324;BME280;25666;44.350;9.222;2023-03-25T01:03:42;101495.16;;;14.39;100.00
32324;BME280;25666;44.350;9.222;2023-03-25T01:06:14;101494.91;;;14.32;100.00
32324;BME280;25666;44.350;9.222;2023-03-25T01:08:43;101485.41;;;14.48;100.00
32324;BME280;25666;44.350;9.222;2023-03-25T01:11:35;101496.00;;;14.55;100.00
32324;BME280;25666;44.350;9.222;2023-03-25T01:14:05;101478.38;;;14.55;100.00
32324;BME280;25666;44.350;9.222;2023-03-25T01:16:32;101481.56;;;14.53;100.00
32324;BME280;25666;44.350;9.222;2023-03-25T01:18:57;101483.53;;;14.53;100.00
32324;BME280;25666;44.350;9.222;2023-03-25T01:21:24;101481.16;;;14.55;100.00
32324;BME280;25666;44.350;9.222;2023-03-25T01:23:50;101479.72;;;14.45;100.00
32324;BME280;25666;44.350;9.222;2023-03-25T01:26:15;101472.75;;;14.39;100.00
32324;BME280;25666;44.350;9.222;2023-03-25T01:28:42;101469.41;;;14.49;100.00
32324;BME280;25666;44.350;9.222;2023-03-25T01:31:11;101468.59;;;14.48;100.00
32324;BME280;25666;44.350;9.222;2023-03-25T01:33:37;101459.13;;;14.53;100.00
32324;BME280;25666;44.350;9.222;2023-03-25T01:36:04;101454.25;;;14.50;100.00
32324;BME280;25666;44.350;9.222;2023-03-25T01:38:36;101446.16;;;14.33;100.00
32324;BME280;25666;44.350;9.222;2023-03-25T01:41:02;101443.78;;;14.47;100.00
32324;BME280;25666;44.350;9.222;2023-03-25T01:43:29;101438.59;;;14.49;100.00
32324;BME280;25666;44.350;9.222;2023-03-25T01:45:56;101437.34;;;14.46;100.00
32324;BME280;25666;44.350;9.222;2023-03-25T01:51:16;101434.28;;;14.52;100.00
32324;BME280;25666;44.350;9.222;2023-03-25T01:53:42;101419.09;;;14.37;100.00
32324;BME280;25666;44.350;9.222;2023-03-25T01:56:10;101423.34;;;14.46;100.00
32324;BME280;25666;44.350;9.222;2023-03-25T01:58:38;101419.34;;;14.47;100.00
32324;BME280;25666;44.350;9.222;2023-03-25T02:01:05;101409.25;;;14.43;100.00
32324;BME280;25666;44.350;9.222;2023-03-25T02:03:34;101404.47;;;14.43;100.00
32324;BME280;25666;44.350;9.222;2023-03-25T02:06:06;101403.09;;;14.37;100.00
32324;BME280;25666;44.350;9.222;2023-03-25T02:08:36;101402.44;;;14.44;100.00
32324;BME280;25666;44.350;9.222;2023-03-25T02:11:04;101403.44;;;14.36;100.00
32324;BME280;25666;44.350;9.222;2023-03-25T02:13:31;101395.22;;;14.43;100.00
32324;BME280;25666;44.350;9.222;2023-03-25T02:18:50;101390.63;;;14.51;100.00
32324;BME280;25666;44.350;9.222;2023-03-25T02:24:11;101395.88;;;14.52;100.00
32324;BME280;25666;44.350;9.222;2023-03-25T02:27:02;101403.16;;;14.57;100.00
32324;BME280;25666;44.350;9.222;2023-03-25T02:32:52;101402.72;;;14.55;100.00
32324;BME280;25666;44.350;9.222;2023-03-25T02:35:34;101405.97;;;14.57;100.00
32324;BME280;25666;44.350;9.222;2023-03-25T02:38:33;101414.94;;;14.62;100.00
32324;BME280;25666;44.350;9.222;2023-03-25T02:41:22;101414.66;;;14.52;100.00
32324;BME280;25666;44.350;9.222;2023-03-25T02:43:57;101412.88;;;14.59;100.00
32324;BME280;25666;44.350;9.222;2023-03-25T02:46:27;101406.63;;;14.66;100.00
32324;BME280;25666;44.350;9.222;2023-03-25T02:48:59;101417.56;;;14.71;100.00
32324;BME280;25666;44.350;9.222;2023-03-25T02:51:32;101411.94;;;14.71;100.00
32324;BME280;25666;44.350;9.222;2023-03-25T02:54:03;101405.81;;;14.65;100.00
32324;BME280;25666;44.350;9.222;2023-03-25T02:56:32;101406.44;;;14.59;100.00
32324;BME280;25666;44.350;9.222;2023-03-25T02:58:59;101402.63;;;14.67;100.00
32324;BME280;25666;44.350;9.222;2023-03-25T03:01:26;101401.91;;;14.54;100.00
32324;BME280;25666;44.350;9.222;2023-03-25T03:03:54;101406.97;;;14.64;100.00
32324;BME280;25666;44.350;9.222;2023-03-25T03:06:21;101401.03;;;14.66;100.00
32324;BME280;25666;44.350;9.222;2023-03-25T03:11:30;101393.88;;;14.68;100.00
32324;BME280;25666;44.350;9.222;2023-03-25T03:14:30;101387.66;;;14.75;100.00
32324;BME280;25666;44.350;9.222;2023-03-25T03:17:27;101391.19;;;14.72;100.00
32324;BME280;25666;44.350;9.222;2023-03-25T03:25:27;101390.44;;;14.75;100.00
32324;BME280;25666;44.350;9.222;2023-03-25T03:36:09;101397.31;;;14.77;100.00
32324;BME280;25666;44.350;9.222;2023-03-25T03:38:46;101396.50;;;14.77;100.00
32324;BME280;25666;44.350;9.222;2023-03-25T03:41:18;101408.78;;;14.72;100.00
32324;BME280;25666;44.350;9.222;2023-03-25T03:43:49;101405.63;;;14.74;100.00
32324;BME280;25666;44.350;9.222;2023-03-25T03:46:33;101413.94;;;14.70;100.00
32324;BME280;25666;44.350;9.222;2023-03-25T03:49:04;101406.06;;;14.76;100.00
32324;BME280;25666;44.350;9.222;2023-03-25T03:51:37;101404.47;;;14.75;100.00
32324;BME280;25666;44.350;9.222;2023-03-25T03:54:17;101407.34;;;14.78;100.00
32324;BME280;25666;44.350;9.222;2023-03-25T03:59:38;101418.47;;;14.75;100.00
32324;BME280;25666;44.350;9.222;2023-03-25T04:02:12;101418.47;;;14.75;100.00
32324;BME280;25666;44.350;9.222;2023-03-25T04:04:41;101404.16;;;14.80;100.00
32324;BME280;25666;44.350;9.222;2023-03-25T04:07:13;101404.09;;;14.76;100.00
32324;BME280;25666;44.350;9.222;2023-03-25T04:09:51;101404.63;;;14.66;100.00
32324;BME280;25666;44.350;9.222;2023-03-25T04:12:26;101408.03;;;14.44;100.00
32324;BME280;25666;44.350;9.222;2023-03-25T04:14:54;101408.69;;;14.37;100.00
32324;BME280;25666;44.350;9.222;2023-03-25T04:17:20;101412.88;;;14.43;100.00
32324;BME280;25666;44.350;9.222;2023-03-25T04:19:46;101415.28;;;14.45;100.00
32324;BME280;25666;44.350;9.222;2023-03-25T04:22:15;101420.16;;;14.48;100.00
32324;BME280;25666;44.350;9.222;2023-03-25T04:24:41;101417.75;;;14.46;100.00
32324;BME280;25666;44.350;9.222;2023-03-25T04:27:08;101432.19;;;14.48;100.00
32324;BME280;25666;44.350;9.222;2023-03-25T04:29:38;101432.72;;;14.54;100.00
32324;BME280;25666;44.350;9.222;2023-03-25T04:32:11;101433.00;;;14.49;100.00
32324;BME280;25666;44.350;9.222;2023-03-25T04:34:37;101425.78;;;14.48;100.00
32324;BME280;25666;44.350;9.222;2023-03-25T04:37:02;101434.16;;;14.48;100.00
32324;BME280;25666;44.350;9.222;2023-03-25T04:39:28;101435.44;;;14.51;100.00
32324;BME280;25666;44.350;9.222;2023-03-25T04:41:57;101430.31;;;14.53;100.00
32324;BME280;25666;44.350;9.222;2023-03-25T04:44:22;101425.53;;;14.53;100.00
32324;BME280;25666;44.350;9.222;2023-03-25T04:46:51;101423.50;;;14.54;100.00
32324;BME280;25666;44.350;9.222;2023-03-25T04:49:20;101425.16;;;14.55;100.00
32324;BME280;25666;44.350;9.222;2023-03-25T04:51:50;101414.22;;;14.50;100.00
32324;BME280;25666;44.350;9.222;2023-03-25T04:54:20;101418.63;;;14.51;100.00
32324;BME280;25666;44.350;9.222;2023-03-25T04:56:46;101427.41;;;14.49;100.00
32324;BME280;25666;44.350;9.222;2023-03-25T04:59:14;101427.66;;;14.44;100.00
32324;BME280;25666;44.350;9.222;2023-03-25T05:01:40;101439.69;;;14.44;100.00
32324;BME280;25666;44.350;9.222;2023-03-25T05:04:09;101434.53;;;14.46;100.00
32324;BME280;25666;44.350;9.222;2023-03-25T05:06:41;101442.41;;;14.29;100.00
32324;BME280;25666;44.350;9.222;2023-03-25T05:09:13;101444.78;;;14.27;100.00
32324;BME280;25666;44.350;9.222;2023-03-25T05:11:41;101440.44;;;14.29;100.00
32324;BME280;25666;44.350;9.222;2023-03-25T05:14:11;101440.91;;;14.31;100.00
32324;BME280;25666;44.350;9.222;2023-03-25T05:16:38;101438.63;;;14.21;100.00
32324;BME280;25666;44.350;9.222;2023-03-25T05:19:04;101438.63;;;14.21;100.00
32324;BME280;25666;44.350;9.222;2023-03-25T05:21:32;101445.50;;;14.24;100.00
32324;BME280;25666;44.350;9.222;2023-03-25T05:24:00;101449.47;;;14.23;100.00
32324;BME280;25666;44.350;9.222;2023-03-25T05:26:27;101443.69;;;14.16;100.00
32324;BME280;25666;44.350;9.222;2023-03-25T05:29:00;101435.00;;;14.21;100.00
32324;BME280;25666;44.350;9.222;2023-03-25T05:31:26;101435.34;;;14.19;100.00
32324;BME280;25666;44.350;9.222;2023-03-25T05:33:52;101429.75;;;14.19;100.00
32324;BME280;25666;44.350;9.222;2023-03-25T05:36:19;101433.88;;;14.10;100.00
32324;BME280;25666;44.350;9.222;2023-03-25T05:38:45;101434.25;;;14.08;100.00
32324;BME280;25666;44.350;9.222;2023-03-25T05:41:14;101435.53;;;14.11;100.00
32324;BME280;25666;44.350;9.222;2023-03-25T05:43:44;101429.00;;;14.07;100.00
32324;BME280;25666;44.350;9.222;2023-03-25T05:46:11;101441.94;;;14.11;100.00
32324;BME280;25666;44.350;9.222;2023-03-25T05:48:37;101439.75;;;14.05;100.00
32324;BME280;25666;44.350;9.222;2023-03-25T05:51:15;101433.22;;;14.01;100.00
32324;BME280;25666;44.350;9.222;2023-03-25T05:53:43;101446.88;;;14.02;100.00
32324;BME280;25666;44.350;9.222;2023-03-25T05:56:10;101446.56;;;13.91;100.00
32324;BME280;25666;44.350;9.222;2023-03-25T05:58:36;101445.41;;;13.92;100.00
32324;BME280;25666;44.350;9.222;2023-03-25T06:01:02;101454.56;;;14.05;100.00
32324;BME280;25666;44.350;9.222;2023-03-25T06:03:28;101463.72;;;14.45;100.00
32324;BME280;25666;44.350;9.222;2023-03-25T06:05:54;101451.69;;;15.08;100.00
32324;BME280;25666;44.350;9.222;2023-03-25T06:08:19;101454.69;;;15.65;100.00
32324;BME280;25666;44.350;9.222;2023-03-25T06:10:59;101442.25;;;17.63;100.00
32324;BME280;25666;44.350;9.222;2023-03-25T06:13:25;101431.38;;;18.65;100.00
32324;BME280;25666;44.350;9.222;2023-03-25T06:15:51;101426.50;;;19.06;100.00
32324;BME280;25666;44.350;9.222;2023-03-25T06:18:23;101434.84;;;19.47;100.00
32324;BME280;25666;44.350;9.222;2023-03-25T06:20:51;101438.53;;;20.62;100.00
32324;BME280;25666;44.350;9.222;2023-03-25T06:23:19;101440.59;;;21.04;100.00
32324;BME280;25666;44.350;9.222;2023-03-25T06:25:49;101438.53;;;21.43;100.00
32324;BME280;25666;44.350;9.222;2023-03-25T06:28:14;101423.81;;;22.01;100.00
32324;BME280;25666;44.350;9.222;2023-03-25T06:30:44;101423.75;;;23.25;100.00
32324;BME280;25666;44.350;9.222;2023-03-25T06:33:09;101415.59;;;24.32;100.00
32324;BME280;25666;44.350;9.222;2023-03-25T06:35:35;101414.38;;;24.87;100.00
32324;BME280;25666;44.350;9.222;2023-03-25T06:38:03;101417.47;;;23.82;100.00
32324;BME280;25666;44.350;9.222;2023-03-25T06:40:40;101421.34;;;23.65;100.00
32324;BME280;25666;44.350;9.222;2023-03-25T06:43:06;101428.84;;;24.46;100.00
32324;BME280;25666;44.350;9.222;2023-03-25T06:45:32;101420.56;;;24.82;100.00
32324;BME280;25666;44.350;9.222;2023-03-25T06:48:07;101419.84;;;24.74;100.00
32324;BME280;25666;44.350;9.222;2023-03-25T06:50:33;101413.25;;;25.70;100.00
32324;BME280;25666;44.350;9.222;2023-03-25T06:52:58;101412.28;;;25.14;100.00
32324;BME280;25666;44.350;9.222;2023-03-25T06:55:24;101417.06;;;25.83;100.00
32324;BME280;25666;44.350;9.222;2023-03-25T06:57:53;101410.72;;;25.33;100.00
32324;BME280;25666;44.350;9.222;2023-03-25T07:00:20;101419.38;;;25.49;100.00
32324;BME280;25666;44.350;9.222;2023-03-25T07:02:49;101434.84;;;24.51;100.00
32324;BME280;25666;44.350;9.222;2023-03-25T07:05:14;101420.22;;;24.23;100.00
32324;BME280;25666;44.350;9.222;2023-03-25T07:07:40;101426.16;;;22.20;100.00
32324;BME280;25666;44.350;9.222;2023-03-25T07:10:06;101422.38;;;22.41;100.00
32324;BME280;25666;44.350;9.222;2023-03-25T07:12:33;101432.63;;;22.21;100.00
32324;BME280;25666;44.350;9.222;2023-03-25T07:14:59;101431.22;;;21.67;100.00
32324;BME280;25666;44.350;9.222;2023-03-25T07:17:25;101428.03;;;20.80;100.00
32324;BME280;25666;44.350;9.222;2023-03-25T07:19:50;101438.53;;;20.62;100.00
32324;BME280;25666;44.350;9.222;2023-03-25T07:22:16;101443.81;;;19.59;100.00
32324;BME280;25666;44.350;9.222;2023-03-25T07:24:42;101450.00;;;19.24;100.00
32324;BME280;25666;44.350;9.222;2023-03-25T07:27:10;101456.13;;;18.86;100.00
32324;BME280;25666;44.350;9.222;2023-03-25T07:29:35;101460.94;;;18.42;100.00
32324;BME280;25666;44.350;9.222;2023-03-25T07:32:01;101466.09;;;18.03;100.00
32324;BME280;25666;44.350;9.222;2023-03-25T07:34:26;101473.03;;;17.79;100.00
32324;BME280;25666;44.350;9.222;2023-03-25T07:36:52;101466.13;;;17.77;100.00
32324;BME280;25666;44.350;9.222;2023-03-25T07:39:17;101460.28;;;18.22;100.00
32324;BME280;25666;44.350;9.222;2023-03-25T07:41:43;101468.38;;;18.27;100.00
32324;BME280;25666;44.350;9.222;2023-03-25T07:44:20;101477.38;;;18.40;100.00
32324;BME280;25666;44.350;9.222;2023-03-25T07:46:47;101476.13;;;18.34;100.00
32324;BME280;25666;44.350;9.222;2023-03-25T07:49:14;101482.50;;;18.64;100.00
32324;BME280;25666;44.350;9.222;2023-03-25T07:51:40;101479.94;;;18.89;100.00
32324;BME280;25666;44.350;9.222;2023-03-25T07:54:05;101471.25;;;18.67;100.00
32324;BME280;25666;44.350;9.222;2023-03-25T07:56:31;101476.19;;;18.07;100.00
32324;BME280;25666;44.350;9.222;2023-03-25T07:58:56;101477.50;;;18.13;100.00
32324;BME280;25666;44.350;9.222;2023-03-25T08:01:22;101477.72;;;18.01;100.00
32324;BME280;25666;44.350;9.222;2023-03-25T08:03:47;101478.63;;;17.76;100.00
32324;BME280;25666;44.350;9.222;2023-03-25T08:06:13;101474.22;;;17.78;100.00
32324;BME280;25666;44.350;9.222;2023-03-25T08:08:39;101477.66;;;17.94;100.00
32324;BME280;25666;44.350;9.222;2023-03-25T08:11:04;101469.47;;;17.86;100.00
32324;BME280;25666;44.350;9.222;2023-03-25T08:13:30;101470.00;;;17.65;100.00
32324;BME280;25666;44.350;9.222;2023-03-25T08:15:55;101468.47;;;17.71;100.00
32324;BME280;25666;44.350;9.222;2023-03-25T08:18:22;101467.72;;;17.74;100.00
32324;BME280;25666;44.350;9.222;2023-03-25T08:20:48;101471.69;;;17.70;100.00
32324;BME280;25666;44.350;9.222;2023-03-25T08:23:15;101471.72;;;17.73;100.00
32324;BME280;25666;44.350;9.222;2023-03-25T08:25:43;101484.78;;;17.58;100.00
32324;BME280;25666;44.350;9.222;2023-03-25T08:28:08;101471.13;;;17.60;100.00
32324;BME280;25666;44.350;9.222;2023-03-25T08:30:35;101472.00;;;17.64;100.00
32324;BME280;25666;44.350;9.222;2023-03-25T08:33:07;101485.81;;;17.73;100.00
32324;BME280;25666;44.350;9.222;2023-03-25T08:35:35;101484.19;;;17.72;100.00
32324;BME280;25666;44.350;9.222;2023-03-25T08:38:01;101482.03;;;17.62;100.00
32324;BME280;25666;44.350;9.222;2023-03-25T08:40:30;101491.09;;;17.52;100.00
32324;BME280;25666;44.350;9.222;2023-03-25T08:42:57;101491.59;;;17.57;100.00
32324;BME280;25666;44.350;9.222;2023-03-25T08:45:22;101494.94;;;17.63;100.00
32324;BME280;25666;44.350;9.222;2023-03-25T08:47:48;101496.13;;;17.62;100.00
32324;BME280;25666;44.350;9.222;2023-03-25T08:50:13;101505.13;;;17.48;100.00
32324;BME280;25666;44.350;9.222;2023-03-25T08:52:39;101496.94;;;17.40;100.00
32324;BME280;25666;44.350;9.222;2023-03-25T08:55:06;101509.44;;;17.42;100.00
32324;BME280;25666;44.350;9.222;2023-03-25T08:57:33;101507.78;;;17.38;100.00
32324;BME280;25666;44.350;9.222;2023-03-25T08:59:59;101508.78;;;17.26;100.00
32324;BME280;25666;44.350;9.222;2023-03-25T09:02:25;101510.06;;;17.29;100.00
32324;BME280;25666;44.350;9.222;2023-03-25T09:04:50;101512.47;;;17.07;100.00
32324;BME280;25666;44.350;9.222;2023-03-25T09:07:16;101513.38;;;17.11;100.00
32324;BME280;25666;44.350;9.222;2023-03-25T09:09:44;101519.25;;;17.26;100.00
32324;BME280;25666;44.350;9.222;2023-03-25T09:12:10;101510.63;;;17.15;100.00
32324;BME280;25666;44.350;9.222;2023-03-25T09:14:36;101509.03;;;17.18;100.00
32324;BME280;25666;44.350;9.222;2023-03-25T09:17:01;101510.19;;;17.13;100.00
32324;BME280;25666;44.350;9.222;2023-03-25T09:19:27;101513.63;;;16.80;100.00
32324;BME280;25666;44.350;9.222;2023-03-25T09:21:53;101511.06;;;16.94;100.00
32324;BME280;25666;44.350;9.222;2023-03-25T09:24:18;101512.72;;;16.76;100.00
32324;BME280;25666;44.350;9.222;2023-03-25T09:26:46;101509.00;;;16.69;100.00
32324;BME280;25666;44.350;9.222;2023-03-25T09:29:11;101510.81;;;16.80;100.00
32324;BME280;25666;44.350;9.222;2023-03-25T09:31:36;101503.13;;;16.77;100.00
32324;BME280;25666;44.350;9.222;2023-03-25T09:34:02;101502.91;;;16.67;100.00
32324;BME280;25666;44.350;9.222;2023-03-25T09:36:27;101509.13;;;16.76;100.00
32324;BME280;25666;44.350;9.222;2023-03-25T09:38:53;101505.50;;;16.75;100.00
32324;BME280;25666;44.350;9.222;2023-03-25T09:41:29;101502.22;;;16.73;100.00
32324;BME280;25666;44.350;9.222;2023-03-25T09:44:12;101500.06;;;16.86;100.00
32324;BME280;25666;44.350;9.222;2023-03-25T09:46:42;101498.41;;;17.07;100.00
32324;BME280;25666;44.350;9.222;2023-03-25T09:49:19;101508.91;;;17.10;100.00
32324;BME280;25666;44.350;9.222;2023-03-25T09:51:48;101501.28;;;17.11;100.00
32324;BME280;25666;44.350;9.222;2023-03-25T09:54:25;101495.94;;;17.02;100.00
32324;BME280;25666;44.350;9.222;2023-03-25T09:56:56;101489.97;;;17.07;100.00
32324;BME280;25666;44.350;9.222;2023-03-25T09:59:35;101490.88;;;17.11;100.00
32324;BME280;25666;44.350;9.222;2023-03-25T10:15:16;101516.81;;;16.79;100.00
32324;BME280;25666;44.350;9.222;2023-03-25T10:23:21;101526.44;;;17.00;100.00
32324;BME280;25666;44.350;9.222;2023-03-25T10:25:55;101524.19;;;17.09;100.00
32324;BME280;25666;44.350;9.222;2023-03-25T10:28:27;101520.63;;;17.12;100.00
32324;BME280;25666;44.350;9.222;2023-03-25T10:30:57;101519.00;;;17.11;100.00
32324;BME280;25666;44.350;9.222;2023-03-25T10:33:35;101521.56;;;16.97;100.00
32324;BME280;25666;44.350;9.222;2023-03-25T10:36:04;101523.94;;;16.95;100.00
32324;BME280;25666;44.350;9.222;2023-03-25T10:38:33;101526.34;;;16.74;100.00
32324;BME280;25666;44.350;9.222;2023-03-25T10:41:34;101527.75;;;16.84;100.00
32324;BME280;25666;44.350;9.222;2023-03-25T10:44:07;101536.03;;;16.77;100.00
32324;BME280;25666;44.350;9.222;2023-03-25T10:49:17;101533.38;;;16.84;100.00
32324;BME280;25666;44.350;9.222;2023-03-25T10:51:44;101536.06;;;16.99;100.00
32324;BME280;25666;44.350;9.222;2023-03-25T10:54:13;101542.25;;;17.08;100.00
32324;BME280;25666;44.350;9.222;2023-03-25T10:56:44;101535.31;;;17.02;100.00
32324;BME280;25666;44.350;9.222;2023-03-25T10:59:22;101529.19;;;16.97;100.00
32324;BME280;25666;44.350;9.222;2023-03-25T11:01:52;101515.38;;;16.88;100.00
32324;BME280;25666;44.350;9.222;2023-03-25T11:04:20;101527.69;;;17.03;100.00
32324;BME280;25666;44.350;9.222;2023-03-25T11:06:51;101526.03;;;16.79;100.00
32324;BME280;25666;44.350;9.222;2023-03-25T11:09:28;101522.31;;;16.94;100.00
32324;BME280;25666;44.350;9.222;2023-03-25T11:12:03;101521.25;;;17.02;100.00
32324;BME280;25666;44.350;9.222;2023-03-25T11:14:36;101527.69;;;17.03;100.00
32324;BME280;25666;44.350;9.222;2023-03-25T11:17:07;101532.50;;;17.02;100.00
32324;BME280;25666;44.350;9.222;2023-03-25T11:19:39;101525.06;;;16.91;100.00
32324;BME280;25666;44.350;9.222;2023-03-25T11:22:14;101531.69;;;17.02;100.00
32324;BME280;25666;44.350;9.222;2023-03-25T11:24:47;101529.75;;;17.06;100.00
32324;BME280;25666;44.350;9.222;2023-03-25T11:27:21;101525.00;;;17.10;100.00
32324;BME280;25666;44.350;9.222;2023-03-25T11:29:59;101535.13;;;17.14;100.00
32324;BME280;25666;44.350;9.222;2023-03-25T11:32:36;101538.19;;;17.29;100.00
32324;BME280;25666;44.350;9.222;2023-03-25T11:37:45;101527.94;;;16.94;100.00
32324;BME280;25666;44.350;9.222;2023-03-25T11:40:16;101532.63;;;17.09;100.00
32324;BME280;25666;44.350;9.222;2023-03-25T11:42:43;101520.06;;;17.03;100.00
32324;BME280;25666;44.350;9.222;2023-03-25T11:45:21;101523.44;;;16.90;100.00
32324;BME280;25666;44.350;9.222;2023-03-25T11:47:47;101526.81;;;16.99;100.00
32324;BME280;25666;44.350;9.222;2023-03-25T11:50:25;101528.50;;;17.03;100.00
32324;BME280;25666;44.350;9.222;2023-03-25T11:52:59;101530.50;;;17.26;100.00
32324;BME280;25666;44.350;9.222;2023-03-25T11:55:45;101536.91;;;17.26;100.00
32324;BME280;25666;44.350;9.222;2023-03-25T11:58:15;101534.25;;;17.10;100.00
32324;BME280;25666;44.350;9.222;2023-03-25T12:00:48;101533.13;;;17.15;100.00
32324;BME280;25666;44.350;9.222;2023-03-25T12:03:20;101528.00;;;17.21;100.00
32324;BME280;25666;44.350;9.222;2023-03-25T12:08:52;101518.63;;;17.13;100.00
32324;BME280;25666;44.350;9.222;2023-03-25T12:11:27;101514.47;;;17.30;100.00
32324;BME280;25666;44.350;9.222;2023-03-25T12:14:11;101518.28;;;17.41;100.00
32324;BME280;25666;44.350;9.222;2023-03-25T12:30:59;101497.56;;;16.81;100.00
32324;BME280;25666;44.350;9.222;2023-03-25T12:42:20;101479.06;;;16.80;100.00
32324;BME280;25666;44.350;9.222;2023-03-25T12:45:12;101470.47;;;16.69;100.00
32324;BME280;25666;44.350;9.222;2023-03-25T12:47:59;101467.13;;;16.64;100.00
32324;BME280;25666;44.350;9.222;2023-03-25T12:55:56;101464.03;;;16.91;100.00
32324;BME280;25666;44.350;9.222;2023-03-25T13:01:30;101463.63;;;16.93;100.00
32324;BME280;25666;44.350;9.222;2023-03-25T13:10:02;101468.56;;;16.99;100.00
32324;BME280;25666;44.350;9.222;2023-03-25T13:12:36;101477.00;;;16.99;100.00
32324;BME280;25666;44.350;9.222;2023-03-25T13:15:14;101473.91;;;17.08;100.00
32324;BME280;25666;44.350;9.222;2023-03-25T13:23:26;101465.00;;;17.02;100.00
32324;BME280;25666;44.350;9.222;2023-03-25T13:26:01;101464.81;;;16.92;100.00
32324;BME280;25666;44.350;9.222;2023-03-25T13:28:36;101465.34;;;17.01;100.00
32324;BME280;25666;44.350;9.222;2023-03-25T13:31:09;101461.84;;;16.81;100.00
32324;BME280;25666;44.350;9.222;2023-03-25T13:33:43;101461.69;;;16.74;100.00
32324;BME280;25666;44.350;9.222;2023-03-25T13:36:25;101463.25;;;16.72;100.00
32324;BME280;25666;44.350;9.222;2023-03-25T13:41:53;101438.00;;;16.52;100.00
32324;BME280;25666;44.350;9.222;2023-03-25T13:44:36;101440.09;;;16.55;100.00
32324;BME280;25666;44.350;9.222;2023-03-25T13:49:46;101435.78;;;16.42;100.00
32324;BME280;25666;44.350;9.222;2023-03-25T13:52:15;101443.56;;;16.30;100.00
32324;BME280;25666;44.350;9.222;2023-03-25T13:54:50;101440.91;;;16.37;100.00
32324;BME280;25666;44.350;9.222;2023-03-25T14:05:26;101426.78;;;16.33;100.00
32324;BME280;25666;44.350;9.222;2023-03-25T14:13:54;101447.72;;;16.36;100.00
32324;BME280;25666;44.350;9.222;2023-03-25T14:16:26;101436.19;;;16.41;100.00
32324;BME280;25666;44.350;9.222;2023-03-25T14:19:04;101430.56;;;16.41;100.00
32324;BME280;25666;44.350;9.222;2023-03-25T14:24:10;101426.47;;;16.38;100.00
32324;BME280;25666;44.350;9.222;2023-03-25T14:26:49;101428.75;;;16.10;100.00
32324;BME280;25666;44.350;9.222;2023-03-25T14:29:28;101427.53;;;16.30;100.00
32324;BME280;25666;44.350;9.222;2023-03-25T14:32:04;101425.25;;;16.17;100.00
32324;BME280;25666;44.350;9.222;2023-03-25T14:34:31;101422.63;;;16.04;100.00
32324;BME280;25666;44.350;9.222;2023-03-25T14:44:39;101421.44;;;16.05;100.00
32324;BME280;25666;44.350;9.222;2023-03-25T14:58:12;101395.47;;;16.31;100.00
32324;BME280;25666;44.350;9.222;2023-03-25T15:00:44;101394.50;;;16.24;100.00
32324;BME280;25666;44.350;9.222;2023-03-25T15:03:15;101384.97;;;16.28;100.00
32324;BME280;25666;44.350;9.222;2023-03-25T15:05:43;101398.19;;;16.28;100.00
32324;BME280;25666;44.350;9.222;2023-03-25T15:08:14;101399.09;;;16.32;100.00
32324;BME280;25666;44.350;9.222;2023-03-25T15:11:02;101387.59;;;16.40;100.00
32324;BME280;25666;44.350;9.222;2023-03-25T15:13:38;101396.75;;;16.15;100.00
32324;BME280;25666;44.350;9.222;2023-03-25T15:21:10;101411.78;;;16.26;100.00
32324;BME280;25666;44.350;9.222;2023-03-25T15:29:20;101418.47;;;16.18;100.00